Oosterzele, Belgium
Current Conditions -  °F | °C
As of 10:25 PM on Saturday 25 Oct 2014 (Local Time) from EBCV Reporting Station
Few Clouds Few Clouds  
Wind Chill: 50°   Ceiling: Unl
Heat Index: 50°   Visibility: 6mi
Dew Point: 48°   Wind: 5mph
Humidity: 94%   Direction: 240°WSW
Pressure: 30.21"   Gusts: NA
Location:  50.95°N, 3.8°E
Report Text: EBCV 252025Z AUTO 24004KT 9999 FEW031/// 10/09 Q1023 BLU
Loading
Personal Weather Stations






























Interactive Weather Map
Tropical Storm Tracking
New forecast layout! Learn more

10-Day Weather Forecast

Advertisements
Track Severe Weather on mobile